Blue Oak Ranch Reserve, California Weather observations

Data are for 10 minute period ending at time listed.
 Day   Time   Solar   Ave.   Ave.  Ave.  Vector  Max.   Baro.   Total    
  of    of     Rad.   Air    Rel.  Wind   Wind   Wind  Press.  Precip.   
Year   Day            Temp.  Hum.  Speed  Dir.   Gust                    
2026   (PST)  Kw/m2    F      %     mph   deg.    mph    mb.     in.     
-------------------------------------------------------------------------
 242   12:10   0.95   74.9    33    5.7   252    12.4   948.7    0.00 
 242   12:20   0.95   73.8    35    4.4   228     9.7   948.6    0.00 
 242   12:30   0.94   73.6    36    5.2   245    10.7   948.6    0.00 
 242   12:40   0.94   75.5    34    6.1   250    10.2   948.5    0.00 
 242   12:50   0.94   75.9    32    5.0   263     9.4   948.5    0.00 
 242   13:00   0.90   77.3    31    5.7   257     9.8   948.5    0.00 
 242   13:10   0.92   78.0    29    5.1   249     8.9   948.4    0.00 
 242   13:20   0.91   77.6    30    5.2   262     8.7   948.4    0.00 
 242   13:30   0.90   78.0    28    3.8   240     8.1   948.3    0.00 
 242   13:40   0.89   78.0    28    4.0   286     8.9   948.1    0.00 
 242   13:50   0.88   79.2    27    5.8   254     9.9   947.9    0.00 
 242   14:00   0.86   78.8    29    4.7   251    11.3   947.8    0.00 
 242   14:10   0.84   77.9    30    4.7   245    10.4   947.7    0.00 
 242   14:20   0.82   79.3    29    4.4   270     8.9   947.6    0.00 
 242   14:30   0.79   79.5    29    4.5   249    11.0   947.5    0.00 
 242   14:40   0.77   78.2    31    5.5   234    10.9   947.5    0.00 
 242   14:50   0.74   78.5    32    4.9   244     8.9   947.3    0.00 
 242   15:00   0.72   78.5    34    4.8   248     8.9   947.2    0.00 
 242   15:10   0.69   78.8    33    4.9   244     9.1   947.2    0.00 
 242   15:20   0.66   78.3    34    5.3   232     8.9   947.2    0.00 
 242   15:30   0.63   77.6    36    5.1   243     9.8   947.1    0.00 
 242   15:40   0.60   77.6    36    5.1   246     8.8   947.0    0.00 
 242   15:50   0.57   77.7    35    5.0   247     9.1   947.0    0.00 
 242   16:00   0.53   77.2    36    6.0   239     9.2   947.1    0.00 
 242   16:10   0.50   76.9    37    5.7   260     9.6   947.0    0.00 
 242   16:20   0.46   77.4    38    5.3   257     8.5   947.0    0.00 
 242   16:30   0.43   75.7    41    4.9   251     9.0   946.9    0.00 
 242   16:40   0.39   75.5    41    6.0   266     9.7   946.9    0.00 
 242   16:50   0.35   75.4    42    6.1   266     9.6   946.9    0.00 
 242   17:00   0.32   74.6    44    4.9   265     7.9   946.9    0.00 
 242   17:10   0.28   73.3    46    4.8   250     7.5   946.9    0.00 
 242   17:20   0.24   72.6    48    3.6   260     6.7   946.9    0.00 
 242   17:30   0.21   72.6    48    4.0   266     6.7   946.8    0.00 
 242   17:40   0.17   72.2    48    3.6   266     6.2   946.7    0.00 
 242   17:50   0.14   70.8    51    2.8   256     5.0   946.7    0.00 
 242   18:00   0.11   70.2    52    2.5   261     4.1   946.8    0.00 
 242   18:10   0.08   68.3    56    1.9   260     3.9   946.8    0.00 
 242   18:20   0.04   67.2    58    2.1   265     3.4   946.7    0.00 
 242   18:30   0.01   66.1    59    2.6   264     4.4   946.8    0.00 
 242   18:40   0.01   64.8    61    1.5   242     3.0   946.8    0.00 
 242   18:50   0.00   63.5    62    0.2   236     1.2   946.9    0.00 
 242   19:00   0.00   61.9    65    0.4   354     1.3   946.9    0.00 
 242   19:10   0.00   60.8    65    0.7     8     1.5   946.9    0.00 
 242   19:20   0.00   59.9    67    1.2   274     2.4   946.9    0.00 
 242   19:30   0.00   59.1    69    0.7   324     1.8   946.9    0.00 
 242   19:40   0.00   58.2    70    0.4   311     1.1   947.1    0.00 
 242   19:50   0.00   57.5    71    0.0     0     0.0   947.1    0.00 
 242   20:00   0.00   56.9    72    0.1   285     0.8   947.2    0.00 
 242   20:10   0.00   56.4    73    0.3     2     1.5   947.3    0.00 
 242   20:20   0.00   55.8    74    0.2    44     1.2   947.4    0.00 
 242   20:30   0.00   55.3    75    0.0     0     0.0   947.5    0.00 
 242   20:40   0.00   55.0    76    0.0     0     0.0   947.5    0.00 
 242   20:50   0.00   54.6    76    0.0     0     0.0   947.5    0.00 
 242   21:00   0.00   54.3    77    0.4    44     1.4   947.5    0.00 
 242   21:10   0.00   54.0    79    0.3   254     1.6   947.5    0.00 
 242   21:20   0.00   54.3    82    1.0   295     1.8   947.5    0.00 
 242   21:30   0.00   54.0    79    0.2   282     1.0   947.4    0.00 
 242   21:40   0.00   53.3    80    0.0   318     0.5   947.4    0.00 
 242   21:50   0.00   52.5    80    0.8    58     1.7   947.4    0.00 
 242   22:00   0.00   51.7    82    0.0   308     0.4   947.4    0.00 
 242   22:10   0.00   51.2    83    0.0     0     0.0   947.4    0.00 
 242   22:20   0.00   50.9    83    0.0     0     0.0   947.3    0.00 
 242   22:30   0.00   50.8    83    0.1   360     0.8   947.3    0.00 
 242   22:40   0.00   50.4    84    1.0   287     2.0   947.2    0.00 
 242   22:50   0.00   50.0    85    0.2    50     1.5   947.2    0.00 
 242   23:00   0.00   49.7    85    1.0    58     2.3   947.1    0.00 
 242   23:10   0.00   49.5    86    0.9    78     2.4   947.1    0.00 
 242   23:20   0.00   49.4    86    1.1   292     1.8   947.1    0.00 
 242   23:30   0.00   49.0    86    0.8   292     1.8   947.0    0.00 
 242   23:40   0.00   49.1    88    0.4   275     1.0   947.0    0.00 
 242   23:50   0.00   49.4    89    0.1   262     1.0   947.0    0.00 
 243    0:00   0.00   49.4    88    0.0    92     0.4   947.1    0.00 
 243    0:10   0.00   49.4    88    0.0    68     0.4   947.0    0.00 
 243    0:20   0.00   49.3    88    0.4    58     1.2   947.0    0.00 
 243    0:30   0.00   49.6    89    0.0     0     0.0   946.9    0.00 
 243    0:40   0.00   49.6    90    0.5   279     1.5   946.9    0.00 
 243    0:50   0.00   49.8    90    0.7   295     2.3   946.9    0.00 
 243    1:00   0.00   49.6    90    2.1    59     3.1   946.8    0.00 
 243    1:10   0.00   49.8    90    0.9   292     2.0   946.7    0.00 
 243    1:20   0.00   50.1    90    1.2   278     2.3   946.7    0.00 
 243    1:30   0.00   49.6    90    0.0   285     0.7   946.7    0.00 
 243    1:40   0.00   49.9    91    0.3    46     1.5   946.6    0.00 
 243    1:50   0.00   49.9    91    0.2   116     1.0   946.7    0.00 
 243    2:00   0.00   49.5    90    1.9   282     2.8   946.7    0.00 
 243    2:10   0.00   49.2    91    0.6    64     1.7   946.7    0.00 
 243    2:20   0.00   49.1    91    1.3    63     2.0   946.6    0.00 
 243    2:30   0.00   48.7    91    0.2   153     1.1   946.6    0.00 
 243    2:40   0.00   48.8    91    0.4    86     1.5   946.6    0.00 
 243    2:50   0.00   49.0    91    1.0   111     2.8   946.5    0.00 
 243    3:00   0.00   48.6    90    0.5   276     1.6   946.6    0.00 
 243    3:10   0.00   47.8    89    0.3   272     1.4   946.6    0.00 
 243    3:20   0.00   47.0    89    0.1   132     1.0   946.6    0.00 
 243    3:30   0.00   46.7    90    2.1   124     4.7   946.6    0.00 
 243    3:40   0.00   46.8    92    1.3   150     2.3   946.6    0.00 
 243    3:50   0.00   46.6    92    0.0   179     0.7   946.6    0.00 
 243    4:00   0.00   46.0    92    0.7    60     1.8   946.7    0.00 
 243    4:10   0.00   45.5    92    0.9    71     2.5   946.8    0.00 
 243    4:20   0.00   44.8    92    0.8   292     2.0   946.8    0.00 
 243    4:30   0.00   44.5    92    0.3   290     1.5   946.8    0.00 
 243    4:40   0.00   44.2    92    0.5   154     1.4   946.8    0.00 
 243    4:50   0.00   44.0    93    0.4   179     1.5   946.8    0.00 
 243    5:00   0.00   43.9    92    0.0     0     0.0   946.8    0.00 
 243    5:10   0.00   43.7    93    1.2    67     2.9   947.0    0.00 
 243    5:20   0.00   44.4    94    1.7    70     3.3   947.0    0.00 
 243    5:30   0.00   44.3    94    1.8   280     4.0   947.1    0.00 
 243    5:40   0.00   45.2    94    1.7    57     4.2   947.3    0.00 
 243    5:50   0.00   46.0    94    1.3    52     4.1   947.3    0.00 
 243    6:00   0.01   46.6    94    0.3   333     2.2   947.5    0.00 
 243    6:10   0.01   47.9    95    1.5    35     3.0   947.6    0.00 
 243    6:20   0.02   48.7    94    1.1    55     3.4   947.7    0.00 
 243    6:30   0.03   49.5    94    1.6    68     3.7   947.8    0.00 
 243    6:40   0.04   50.0    94    2.2    70     4.0   947.8    0.00 
 243    6:50   0.04   50.3    94    0.5    79     3.4   948.0    0.00 
 243    7:00   0.05   50.3    94    1.3   149     2.8   948.1    0.00 
 243    7:10   0.06   50.1    94    1.9   160     2.8   948.2    0.00 
 243    7:20   0.07   50.1    95    1.4   170     2.0   948.3    0.00 
 243    7:30   0.11   50.4    95    1.5   169     2.5   948.2    0.00 
 243    7:40   0.13   50.8    95    0.4   183     2.3   948.2    0.00 
 243    7:50   0.15   51.3    95    0.9    17     2.3   948.2    0.00 
 243    8:00   0.15   51.5    95    1.2   188     3.4   948.3    0.00 
 243    8:10   0.17   51.7    95    1.1   158     3.5   948.3    0.00 
 243    8:20   0.18   52.0    94    1.4   169     3.1   948.3    0.00 
 243    8:30   0.18   52.0    94    3.0   169     4.5   948.3    0.00 
 243    8:40   0.16   52.3    94    3.2   250     5.3   948.5    0.00 
 243    8:50   0.20   52.4    94    1.2   280     3.6   948.6    0.00 
 243    9:00   0.22   52.8    93    1.5   253     3.2   948.6    0.00 
 243    9:10   0.28   53.2    92    1.6   159     3.7   948.7    0.00 
 243    9:20   0.33   54.1    89    2.3   255     6.2   948.8    0.00 
 243    9:30   0.24   54.8    86    3.3   250     6.4   949.0    0.00 
 243    9:40   0.22   53.7    88    3.7   244     7.6   949.1    0.00 
 243    9:50   0.23   54.0    87    3.2   259     5.1   949.1    0.00 
 243   10:00   0.28   54.3    86    3.6   256     5.8   949.3    0.00 
 243   10:10   0.31   54.8    82    3.3   226     5.8   949.3    0.00 
 243   10:20   0.30   54.6    83    3.9   258     6.5   949.3    0.00 
 243   10:30   0.36   55.3    81    3.0   269     6.6   949.3    0.00 
 243   10:40   0.70   57.0    77    2.6   263     4.9   949.2    0.00 
 243   10:50   0.82   59.5    70    2.3   240     5.3   949.2    0.00 
 243   11:00   0.79   60.1    69    4.2   241     8.3   949.2    0.00 
 243   11:10   0.91   59.0    71    2.9   208     6.9   949.0    0.00 
 243   11:20   0.92   60.8    66    2.8   167     6.5   948.9    0.00 
 243   11:30   0.92   61.9    63    2.7   179     5.9   948.8    0.00 
 243   11:40   0.93   64.1    59    6.5   262    13.0   948.8    0.00 
 243   11:50   0.94   64.5    58    6.5   247    11.1   948.9    0.00 
 243   12:00   0.94   64.3    56    7.0   260    11.7   948.9    0.00 

Return to Blue Oak Ranch Reserve graphs page.


Western Regional Climate Center,wrcc@dri.edu